createdAt,value
2018-06-27T00:01:39.299Z,86.27
2018-06-27T00:04:08.813Z,86.28
2018-06-27T00:06:38.614Z,85.24
2018-06-27T00:09:08.835Z,85.91
2018-06-27T00:11:38.853Z,85.95
2018-06-27T00:14:08.556Z,86.16
2018-06-27T00:16:37.921Z,85.94
2018-06-27T00:19:08.374Z,86.07
2018-06-27T00:21:37.918Z,86.99
2018-06-27T00:24:07.348Z,86.71
2018-06-27T00:26:37.373Z,86.45
2018-06-27T00:29:07.014Z,86.54
2018-06-27T00:31:36.422Z,85.71
2018-06-27T00:34:06.279Z,85.42
2018-06-27T00:36:35.708Z,85.61
2018-06-27T00:39:08.591Z,85.73
2018-06-27T00:41:38.056Z,85.53
2018-06-27T00:44:07.693Z,85.15
2018-06-27T00:46:37.645Z,86.01
2018-06-27T00:49:07.215Z,86.19
2018-06-27T00:51:36.800Z,85.82
2018-06-27T00:54:09.591Z,86.18
2018-06-27T00:56:40.536Z,84.98
2018-06-27T00:59:10.187Z,85.23
2018-06-27T01:01:40.036Z,85.33
2018-06-27T01:04:09.373Z,86.70
2018-06-27T01:06:38.920Z,87.01
2018-06-27T01:09:09.313Z,87.93
2018-06-27T01:11:39.013Z,87.98
2018-06-27T01:14:08.515Z,87.93
2018-06-27T01:16:37.847Z,87.42
2018-06-27T01:19:07.093Z,86.70
2018-06-27T01:21:36.648Z,86.65
2018-06-27T01:24:06.040Z,87.32
2018-06-27T01:26:35.780Z,86.38
2018-06-27T01:29:05.452Z,86.76
2018-06-27T01:31:34.901Z,86.71
2018-06-27T01:34:04.530Z,86.40
2018-06-27T01:36:33.986Z,86.52
2018-06-27T01:39:03.621Z,86.64
2018-06-27T01:41:33.060Z,86.63
2018-06-27T01:44:02.478Z,86.50
2018-06-27T01:46:31.816Z,86.65
2018-06-27T01:49:02.110Z,86.28
2018-06-27T01:51:31.618Z,86.69
2018-06-27T01:54:00.971Z,86.23
2018-06-27T01:56:31.513Z,86.46
2018-06-27T01:59:00.892Z,86.35
2018-06-27T02:01:30.456Z,85.96
2018-06-27T02:04:00.473Z,86.03
2018-06-27T02:06:29.929Z,86.65
2018-06-27T02:08:59.380Z,86.07
2018-06-27T02:11:28.861Z,86.81
2018-06-27T02:13:58.157Z,86.62
2018-06-27T02:16:27.564Z,87.30
2018-06-27T02:18:56.808Z,87.39
2018-06-27T02:21:26.009Z,87.83
2018-06-27T02:23:55.309Z,87.33
2018-06-27T02:26:24.539Z,87.14
2018-06-27T02:28:53.802Z,87.18
2018-06-27T02:31:23.185Z,87.41
2018-06-27T02:33:52.530Z,88.29
2018-06-27T02:36:21.855Z,88.15
2018-06-27T02:38:51.190Z,87.70
2018-06-27T02:41:21.403Z,87.29
2018-06-27T02:43:50.629Z,87.74
2018-06-27T02:46:20.037Z,87.30
2018-06-27T02:48:49.638Z,87.65
2018-06-27T02:51:18.958Z,87.56
2018-06-27T02:53:48.188Z,87.81
2018-06-27T02:56:18.252Z,88.11
2018-06-27T02:58:47.523Z,88.77
2018-06-27T03:01:16.924Z,88.54
2018-06-27T03:03:46.380Z,89.24
2018-06-27T03:06:15.680Z,89.22
2018-06-27T03:08:45.058Z,88.69
2018-06-27T03:11:14.405Z,88.92
2018-06-27T03:13:43.797Z,88.30
2018-06-27T03:16:13.092Z,89.10
2018-06-27T03:18:53.287Z,89.12
2018-06-27T03:21:23.361Z,89.22
2018-06-27T03:23:53.137Z,88.53
2018-06-27T03:26:22.734Z,88.76
2018-06-27T03:28:52.033Z,88.82
2018-06-27T03:31:21.267Z,89.24
2018-06-27T03:33:50.869Z,89.31
2018-06-27T03:36:19.932Z,88.44
2018-06-27T03:38:49.174Z,88.23
2018-06-27T03:41:18.496Z,88.35
2018-06-27T03:43:47.777Z,88.46
2018-06-27T03:46:17.101Z,87.89
2018-06-27T03:48:47.061Z,88.60
2018-06-27T03:51:16.383Z,88.36
2018-06-27T03:53:51.645Z,88.38
2018-06-27T03:56:21.250Z,88.49
2018-06-27T03:58:50.975Z,88.37
2018-06-27T04:01:20.420Z,88.66
2018-06-27T04:03:49.829Z,87.77
2018-06-27T04:06:19.156Z,88.53
2018-06-27T04:08:48.587Z,88.58
2018-06-27T04:11:17.972Z,88.02
2018-06-27T04:13:47.260Z,88.13
2018-06-27T04:16:17.082Z,87.52
2018-06-27T04:18:46.344Z,87.36
2018-06-27T04:21:15.688Z,87.80
2018-06-27T04:23:45.111Z,87.00
2018-06-27T04:26:14.367Z,87.36
2018-06-27T04:28:43.888Z,87.04
2018-06-27T04:31:13.346Z,87.08
2018-06-27T04:33:42.609Z,86.64
2018-06-27T04:36:11.958Z,86.29
2018-06-27T04:38:41.220Z,87.02
2018-06-27T04:41:10.561Z,87.22
2018-06-27T04:43:39.831Z,87.18
2018-06-27T04:46:09.949Z,86.15
2018-06-27T04:48:39.394Z,85.59
2018-06-27T04:51:08.714Z,86.18
2018-06-27T04:53:38.241Z,85.86
2018-06-27T04:56:07.210Z,85.42
2018-06-27T04:58:36.583Z,85.97
2018-06-27T05:01:06.249Z,85.22
2018-06-27T05:03:35.650Z,84.99
2018-06-27T05:06:05.162Z,84.25
2018-06-27T05:08:35.288Z,83.00
2018-06-27T05:11:04.670Z,82.87
2018-06-27T05:13:34.213Z,82.64
2018-06-27T05:16:03.841Z,82.42
2018-06-27T05:18:33.616Z,82.01
2018-06-27T05:21:03.115Z,80.79
2018-06-27T05:23:32.663Z,79.93
2018-06-27T05:26:02.154Z,78.41
2018-06-27T05:28:31.771Z,78.17
2018-06-27T05:31:02.252Z,77.35
2018-06-27T05:33:31.911Z,76.88
2018-06-27T05:36:01.732Z,75.95
2018-06-27T05:38:31.547Z,75.34
2018-06-27T05:41:01.865Z,74.67
2018-06-27T05:43:31.530Z,72.54
2018-06-27T05:46:01.349Z,72.99
2018-06-27T05:48:31.072Z,73.14
2018-06-27T05:51:00.590Z,72.16
2018-06-27T05:53:30.150Z,72.85
2018-06-27T05:55:59.718Z,72.37
2018-06-27T05:58:30.589Z,73.08
2018-06-27T06:01:00.565Z,73.39
2018-06-27T06:03:30.648Z,72.15
2018-06-27T06:06:00.439Z,72.63
2018-06-27T06:08:30.726Z,71.10
2018-06-27T06:11:00.256Z,71.70
2018-06-27T06:13:30.376Z,71.98
2018-06-27T06:16:01.434Z,72.17
2018-06-27T06:18:31.958Z,72.11
2018-06-27T06:21:01.349Z,72.10
2018-06-27T06:23:30.786Z,71.71
2018-06-27T06:26:00.278Z,71.97
2018-06-27T06:28:29.717Z,71.78
2018-06-27T06:31:00.061Z,70.78
2018-06-27T06:33:29.562Z,70.48
2018-06-27T06:35:59.009Z,70.44
2018-06-27T06:38:28.400Z,70.28
2018-06-27T06:40:57.911Z,68.98
2018-06-27T06:43:27.365Z,68.80
2018-06-27T06:45:56.678Z,68.68
2018-06-27T06:48:25.901Z,68.24
2018-06-27T06:50:55.180Z,68.75
2018-06-27T06:53:25.365Z,67.47
2018-06-27T06:55:54.680Z,67.66
2018-06-27T06:58:23.918Z,68.33
2018-06-27T07:00:53.197Z,68.18
2018-06-27T07:03:22.554Z,68.88
2018-06-27T07:05:52.002Z,69.69
2018-06-27T07:08:21.292Z,69.85
2018-06-27T07:10:50.530Z,68.47
2018-06-27T07:13:20.193Z,69.29
2018-06-27T07:15:49.898Z,69.50
2018-06-27T07:18:20.939Z,67.93
2018-06-27T07:20:52.137Z,68.23
2018-06-27T07:23:21.529Z,67.34
2018-06-27T07:25:50.926Z,67.78
2018-06-27T07:28:20.323Z,68.20
2018-06-27T07:30:54.708Z,66.97
2018-06-27T07:33:24.640Z,64.98
2018-06-27T07:35:53.926Z,64.50
2018-06-27T07:38:23.362Z,64.41
2018-06-27T07:40:52.823Z,65.10
2018-06-27T07:43:22.185Z,65.95
2018-06-27T07:45:51.493Z,66.20
2018-06-27T07:48:20.957Z,66.48
2018-06-27T07:50:50.361Z,66.39
2018-06-27T07:53:19.659Z,66.49
2018-06-27T07:55:49.040Z,66.16
2018-06-27T07:58:18.350Z,64.79
2018-06-27T08:00:47.596Z,63.92
2018-06-27T08:03:16.936Z,65.42
2018-06-27T08:05:46.498Z,66.90
2018-06-27T08:08:15.782Z,66.05
2018-06-27T08:10:45.145Z,65.05
2018-06-27T08:13:14.407Z,65.02
2018-06-27T08:15:43.725Z,63.50
2018-06-27T08:18:13.341Z,64.36
2018-06-27T08:20:42.907Z,62.79
2018-06-27T08:23:12.328Z,61.33
2018-06-27T08:25:46.949Z,61.08
2018-06-27T08:28:16.361Z,61.94
2018-06-27T08:30:45.770Z,62.07
2018-06-27T08:33:16.055Z,61.05
2018-06-27T08:35:45.305Z,60.13
2018-06-27T08:38:14.986Z,61.25
2018-06-27T08:40:44.874Z,60.76
2018-06-27T08:43:14.219Z,60.92
2018-06-27T08:45:43.638Z,61.84
2018-06-27T08:48:13.088Z,61.65
2018-06-27T08:50:42.653Z,60.21
2018-06-27T08:53:12.114Z,60.80
2018-06-27T08:55:42.649Z,61.07
2018-06-27T08:58:12.019Z,60.99
2018-06-27T09:00:41.378Z,59.93
2018-06-27T09:03:10.899Z,59.33
2018-06-27T09:05:40.542Z,61.23
2018-06-27T09:08:10.203Z,59.94
2018-06-27T09:10:40.675Z,59.55
2018-06-27T09:13:10.511Z,60.21
2018-06-27T09:15:40.228Z,60.10
2018-06-27T09:18:10.057Z,60.25
2018-06-27T09:20:39.504Z,61.24
2018-06-27T09:23:09.032Z,61.72
2018-06-27T09:25:38.948Z,61.02
2018-06-27T09:28:08.448Z,60.53
2018-06-27T09:30:37.949Z,61.11
2018-06-27T09:33:07.524Z,58.62
2018-06-27T09:35:36.976Z,58.88
2018-06-27T09:38:06.499Z,57.85
2018-06-27T09:40:36.317Z,59.93
2018-06-27T09:43:06.304Z,59.75
2018-06-27T09:45:36.070Z,56.68
2018-06-27T09:48:06.161Z,57.42
2018-06-27T09:50:35.993Z,58.75
2018-06-27T09:53:05.838Z,58.44
2018-06-27T09:55:35.801Z,57.86
2018-06-27T09:58:05.477Z,57.78
2018-06-27T10:00:38.287Z,55.25
2018-06-27T10:03:08.935Z,52.77
2018-06-27T10:05:38.732Z,49.02
2018-06-27T10:08:08.856Z,52.29
2018-06-27T10:10:38.720Z,51.94
2018-06-27T10:13:08.270Z,50.48
2018-06-27T10:15:37.876Z,48.71
2018-06-27T10:18:07.593Z,47.24
2018-06-27T10:20:37.038Z,50.38
2018-06-27T10:23:06.757Z,52.29
2018-06-27T10:25:36.344Z,53.23
2018-06-27T10:28:06.291Z,49.73
2018-06-27T10:30:36.802Z,46.16
2018-06-27T10:33:06.538Z,47.64
2018-06-27T10:35:36.302Z,50.32
2018-06-27T10:38:06.625Z,50.06
2018-06-27T10:40:36.126Z,49.69
2018-06-27T10:43:05.857Z,47.57
2018-06-27T10:45:35.589Z,46.41
2018-06-27T10:48:05.358Z,41.74
2018-06-27T10:50:35.185Z,43.58
2018-06-27T10:53:04.769Z,43.63
2018-06-27T10:55:34.261Z,41.67
2018-06-27T10:58:04.117Z,38.46
2018-06-27T11:00:34.522Z,44.32
2018-06-27T11:03:04.458Z,45.60
2018-06-27T11:05:34.030Z,44.08
2018-06-27T11:08:03.792Z,43.28
2018-06-27T11:10:33.443Z,42.82
2018-06-27T11:13:03.577Z,43.67
2018-06-27T11:15:33.368Z,44.56
2018-06-27T11:18:03.145Z,41.92
2018-06-27T11:20:33.421Z,40.89
2018-06-27T11:23:02.951Z,39.60
2018-06-27T11:25:32.454Z,39.04
2018-06-27T11:28:07.793Z,38.41
2018-06-27T11:30:37.299Z,37.84
2018-06-27T11:33:06.871Z,39.20
2018-06-27T11:35:37.206Z,38.66
2018-06-27T11:38:06.724Z,36.11
2018-06-27T11:40:36.306Z,34.68
2018-06-27T11:43:06.283Z,36.67
2018-06-27T11:45:36.960Z,39.19
2018-06-27T11:48:06.628Z,39.42
2018-06-27T11:50:36.243Z,38.30
2018-06-27T11:53:05.802Z,38.17
2018-06-27T11:55:35.349Z,39.01
2018-06-27T11:58:07.065Z,40.77
2018-06-27T12:00:36.583Z,40.33
2018-06-27T12:03:06.461Z,39.87
2018-06-27T12:05:37.286Z,39.79
2018-06-27T12:08:06.854Z,36.02
2018-06-27T12:10:36.332Z,33.34
2018-06-27T12:13:06.229Z,32.60
2018-06-27T12:15:36.685Z,30.71
2018-06-27T12:18:06.603Z,30.57
2018-06-27T12:20:37.627Z,29.42
2018-06-27T12:23:07.197Z,30.52
2018-06-27T12:25:36.638Z,30.13
2018-06-27T12:28:06.237Z,29.44
2018-06-27T12:30:35.766Z,28.84
2018-06-27T12:33:06.393Z,26.61
2018-06-27T12:35:35.998Z,27.20
2018-06-27T12:38:05.918Z,27.96
2018-06-27T12:40:35.619Z,27.15
2018-06-27T12:43:05.829Z,24.90
2018-06-27T12:45:35.556Z,25.27
2018-06-27T12:48:05.449Z,26.83
2018-06-27T12:50:35.171Z,26.66
2018-06-27T12:53:04.673Z,27.78
2018-06-27T12:55:34.288Z,27.34
2018-06-27T12:58:04.114Z,26.14
2018-06-27T13:00:33.658Z,28.24
2018-06-27T13:03:03.230Z,28.03
2018-06-27T13:05:32.717Z,27.66
2018-06-27T13:08:02.316Z,28.52
2018-06-27T13:10:31.926Z,28.45
2018-06-27T13:13:01.928Z,28.34
2018-06-27T13:15:42.680Z,28.68
2018-06-27T13:19:37.633Z,25.22
2018-06-27T13:22:07.831Z,25.38
2018-06-27T13:24:37.680Z,25.31
2018-06-27T13:27:07.792Z,25.92
2018-06-27T13:29:37.331Z,25.84
2018-06-27T13:32:06.779Z,26.52
2018-06-27T13:34:39.023Z,27.66
2018-06-27T13:37:08.679Z,26.76
2018-06-27T13:39:38.392Z,26.17
2018-06-27T13:42:22.416Z,24.97
2018-06-27T13:44:51.695Z,26.78
2018-06-27T13:47:21.739Z,25.16
2018-06-27T13:49:51.412Z,25.79
2018-06-27T13:52:22.861Z,24.67
2018-06-27T13:54:56.137Z,25.76
2018-06-27T13:57:26.741Z,24.54
2018-06-27T13:59:57.427Z,24.07
2018-06-27T14:02:26.951Z,23.27
2018-06-27T14:04:56.410Z,24.15
2018-06-27T14:07:25.811Z,24.22
2018-06-27T14:09:55.190Z,24.55
2018-06-27T14:12:24.581Z,25.45
2018-06-27T14:14:53.890Z,25.68
2018-06-27T14:17:24.123Z,26.61
2018-06-27T14:19:53.478Z,25.38
2018-06-27T14:22:22.962Z,26.22
2018-06-27T14:24:52.450Z,27.30
2018-06-27T14:27:21.882Z,28.01
2018-06-27T14:29:52.433Z,27.67
2018-06-27T14:32:21.721Z,27.66
2018-06-27T14:34:51.134Z,29.11
2018-06-27T14:37:20.576Z,28.92
2018-06-27T14:39:49.914Z,26.69
2018-06-27T14:42:19.441Z,26.18
2018-06-27T14:44:49.289Z,26.79
2018-06-27T14:47:18.825Z,25.54
2018-06-27T14:49:48.061Z,29.21
2018-06-27T14:52:17.405Z,26.97
2018-06-27T14:54:49.359Z,27.18
2018-06-27T14:57:20.296Z,27.29
2018-06-27T14:59:49.932Z,27.83
2018-06-27T15:02:19.593Z,26.36
2018-06-27T15:04:49.297Z,26.44
2018-06-27T15:07:19.376Z,27.56
2018-06-27T15:09:48.768Z,27.83
2018-06-27T15:12:18.352Z,26.45
2018-06-27T15:14:48.012Z,26.26
2018-06-27T15:17:17.389Z,26.64
2018-06-27T15:19:47.140Z,25.83
2018-06-27T15:22:16.810Z,27.01
2018-06-27T15:24:46.248Z,28.50
2018-06-27T15:27:15.622Z,28.99
2018-06-27T15:29:45.044Z,29.99
2018-06-27T15:32:14.275Z,30.32
2018-06-27T15:34:43.673Z,31.75
2018-06-27T15:37:13.149Z,31.57
2018-06-27T15:39:42.478Z,31.28
2018-06-27T15:42:11.954Z,31.68
2018-06-27T15:44:41.292Z,34.52
2018-06-27T15:47:10.781Z,32.14
2018-06-27T15:49:40.363Z,31.38
2018-06-27T15:52:09.953Z,33.53
2018-06-27T15:54:39.564Z,32.43
2018-06-27T15:57:09.684Z,32.43
2018-06-27T15:59:43.242Z,33.52
2018-06-27T16:02:12.680Z,33.82
2018-06-27T16:04:42.154Z,34.95
2018-06-27T16:07:17.757Z,34.29
2018-06-27T16:09:47.728Z,34.44
2018-06-27T16:12:17.053Z,33.88
2018-06-27T16:14:46.461Z,34.17
2018-06-27T16:17:15.950Z,33.25
2018-06-27T16:19:45.152Z,33.24
2018-06-27T16:22:14.668Z,33.78
2018-06-27T16:24:44.113Z,33.81
2018-06-27T16:27:13.907Z,33.82
2018-06-27T16:29:46.005Z,32.96
2018-06-27T16:32:15.662Z,32.68
2018-06-27T16:34:45.122Z,34.07
2018-06-27T16:37:14.558Z,35.84
2018-06-27T16:39:45.119Z,34.90
2018-06-27T16:42:14.380Z,35.07
2018-06-27T16:44:43.745Z,33.23
2018-06-27T16:47:13.567Z,33.50
2018-06-27T16:49:43.066Z,33.99
2018-06-27T16:52:12.619Z,35.60
2018-06-27T16:54:42.203Z,35.97
2018-06-27T16:57:11.643Z,38.23
2018-06-27T16:59:41.283Z,38.41
2018-06-27T17:02:10.982Z,36.90
2018-06-27T17:04:40.332Z,36.60
2018-06-27T17:07:10.022Z,35.42
2018-06-27T17:09:40.498Z,38.19
2018-06-27T17:12:09.969Z,38.82
2018-06-27T17:14:39.469Z,39.71
2018-06-27T17:17:09.707Z,40.07
2018-06-27T17:19:39.245Z,40.63
2018-06-27T17:22:09.078Z,41.09
2018-06-27T17:24:38.705Z,40.70
2018-06-27T17:27:08.539Z,41.24
2018-06-27T17:29:38.163Z,41.71
2018-06-27T17:32:07.911Z,40.85
2018-06-27T17:34:37.608Z,42.27
2018-06-27T17:37:07.367Z,40.62
2018-06-27T17:39:37.229Z,42.56
2018-06-27T17:42:06.940Z,43.33
2018-06-27T17:44:36.832Z,42.93
2018-06-27T17:47:06.501Z,44.10
2018-06-27T17:49:36.676Z,44.05
2018-06-27T17:52:06.810Z,44.45
2018-06-27T17:54:36.415Z,43.83
2018-06-27T17:57:05.881Z,42.63
2018-06-27T17:59:35.934Z,43.19
2018-06-27T18:02:05.396Z,42.41
2018-06-27T18:04:34.854Z,42.88
2018-06-27T18:07:04.413Z,42.19
2018-06-27T18:09:34.221Z,41.66
2018-06-27T18:12:03.948Z,41.77
2018-06-27T18:14:33.496Z,43.09
2018-06-27T18:17:03.178Z,43.26
2018-06-27T18:19:34.104Z,45.16
2018-06-27T18:22:04.148Z,43.97
2018-06-27T18:24:34.205Z,44.95
2018-06-27T18:27:04.015Z,44.33
2018-06-27T18:29:33.466Z,45.18
2018-06-27T18:32:03.351Z,45.36
2018-06-27T18:34:32.998Z,45.41
2018-06-27T18:37:09.582Z,45.86
2018-06-27T18:39:39.977Z,45.09
2018-06-27T18:42:14.234Z,45.24
2018-06-27T18:44:48.986Z,45.29
2018-06-27T18:47:23.268Z,44.44
2018-06-27T18:49:59.223Z,44.16
2018-06-27T18:52:33.622Z,45.53
2018-06-27T18:55:08.919Z,44.58
2018-06-27T18:57:43.942Z,47.17
2018-06-27T19:00:17.543Z,46.80
2018-06-27T19:02:51.439Z,47.53
2018-06-27T19:05:25.232Z,46.52
2018-06-27T19:07:54.811Z,47.05
2018-06-27T19:10:24.036Z,48.68
2018-06-27T19:12:53.536Z,50.20
2018-06-27T19:15:22.974Z,50.48
2018-06-27T19:17:52.325Z,52.55
2018-06-27T19:20:22.528Z,53.00
2018-06-27T19:22:52.019Z,53.93
2018-06-27T19:25:21.377Z,54.96
2018-06-27T19:27:50.662Z,55.37
2018-06-27T19:30:19.914Z,55.90
2018-06-27T19:32:49.232Z,57.23
2018-06-27T19:35:18.490Z,57.13
2018-06-27T19:37:48.057Z,58.53
2018-06-27T19:40:22.968Z,57.95
2018-06-27T19:42:56.953Z,58.24
2018-06-27T19:45:32.354Z,59.26
2018-06-27T19:48:07.205Z,59.93
2018-06-27T19:50:41.187Z,59.41
2018-06-27T19:53:15.169Z,59.76
2018-06-27T19:55:49.599Z,59.79
2018-06-27T19:58:24.219Z,59.63
2018-06-27T20:00:53.697Z,59.56
2018-06-27T20:06:55.260Z,60.78
2018-06-27T20:09:24.550Z,60.97
2018-06-27T20:11:53.786Z,61.99
2018-06-27T20:14:23.112Z,62.17
2018-06-27T20:16:52.624Z,63.13
2018-06-27T20:19:22.298Z,63.21
2018-06-27T20:21:51.866Z,63.46
2018-06-27T20:24:21.115Z,64.21
2018-06-27T20:26:50.442Z,63.99
2018-06-27T20:29:19.913Z,64.04
2018-06-27T20:31:49.367Z,64.83
2018-06-27T20:34:18.842Z,65.23
2018-06-27T20:36:48.124Z,64.74
2018-06-27T20:39:17.376Z,65.12
2018-06-27T20:41:47.320Z,66.05
2018-06-27T20:44:17.022Z,65.45
2018-06-27T20:46:46.306Z,66.02
2018-06-27T20:49:15.545Z,65.70
2018-06-27T20:51:44.846Z,66.58
2018-06-27T20:54:14.209Z,66.43
2018-06-27T20:56:43.509Z,66.82
2018-06-27T20:59:12.843Z,66.45
2018-06-27T21:01:42.216Z,67.12
2018-06-27T21:04:11.465Z,67.16
2018-06-27T21:06:40.868Z,66.59
2018-06-27T21:09:11.221Z,66.72
2018-06-27T21:11:40.614Z,67.06
2018-06-27T21:14:10.492Z,67.35
2018-06-27T21:16:39.803Z,68.44
2018-06-27T21:19:09.212Z,68.13
2018-06-27T21:21:38.684Z,68.84
2018-06-27T21:24:08.030Z,69.11
2018-06-27T21:26:37.449Z,68.95
2018-06-27T21:29:07.187Z,68.94
2018-06-27T21:31:36.530Z,69.71
2018-06-27T21:34:05.987Z,69.22
2018-06-27T21:36:35.391Z,69.99
2018-06-27T21:39:06.891Z,69.06
2018-06-27T21:41:36.448Z,70.51
2018-06-27T21:44:06.205Z,70.90
2018-06-27T21:46:35.768Z,70.77
2018-06-27T21:49:05.222Z,71.08
2018-06-27T21:51:34.664Z,70.76
2018-06-27T21:54:04.030Z,71.22
2018-06-27T21:56:33.799Z,71.51
2018-06-27T21:59:03.222Z,71.15
2018-06-27T22:01:32.712Z,70.93
2018-06-27T22:04:02.662Z,71.55
2018-06-27T22:06:32.034Z,71.58
2018-06-27T22:09:01.568Z,72.42
2018-06-27T22:11:30.995Z,71.37
2018-06-27T22:14:00.372Z,72.03
2018-06-27T22:16:33.053Z,71.29
2018-06-27T22:19:02.697Z,72.03
2018-06-27T22:21:32.578Z,72.44
2018-06-27T22:24:02.896Z,72.69
2018-06-27T22:26:32.418Z,71.62
2018-06-27T22:29:01.857Z,72.09
2018-06-27T22:31:32.403Z,72.53
2018-06-27T22:34:04.685Z,72.41
2018-06-27T22:36:34.146Z,71.99
2018-06-27T22:39:03.650Z,71.92
2018-06-27T22:41:33.261Z,72.44
2018-06-27T22:44:02.706Z,72.93
2018-06-27T22:46:32.234Z,73.18
2018-06-27T22:49:01.765Z,74.07
2018-06-27T22:51:31.521Z,73.71
2018-06-27T22:54:01.051Z,74.10
2018-06-27T22:56:30.460Z,74.86
2018-06-27T22:59:00.106Z,75.60
2018-06-27T23:01:29.523Z,75.37
2018-06-27T23:03:58.851Z,74.91
2018-06-27T23:06:28.166Z,75.35
2018-06-27T23:08:57.489Z,75.27
2018-06-27T23:11:26.848Z,75.46
2018-06-27T23:13:56.564Z,75.30
2018-06-27T23:16:25.815Z,75.63
2018-06-27T23:18:55.115Z,76.46
2018-06-27T23:21:24.400Z,76.29
2018-06-27T23:23:53.778Z,76.28
2018-06-27T23:27:47.723Z,75.79
2018-06-27T23:30:17.008Z,76.15
2018-06-27T23:32:46.365Z,76.28
2018-06-27T23:35:15.810Z,76.06
2018-06-27T23:37:45.209Z,75.47
2018-06-27T23:40:14.590Z,76.08
2018-06-27T23:42:44.097Z,76.37
2018-06-27T23:45:13.605Z,75.94
2018-06-27T23:47:43.287Z,75.89
2018-06-27T23:50:13.122Z,76.12
2018-06-27T23:52:42.703Z,75.84
2018-06-27T23:55:12.031Z,75.63
2018-06-27T23:57:41.533Z,76.11
